Sutton, Vermont
Current Conditions -  °F | °C
As of 5:55 PM on Saturday 25 Oct 2014 (Local Time) from KCDA Reporting Station
Broken Clouds Broken Clouds  
Wind Chill: 53°   Ceiling: 5500
Heat Index: 53°   Visibility: 10mi
Dew Point: 38°   Wind: 0mph
Humidity: 57%   Direction: NA
Pressure: 29.55"   Gusts: NA
Location:  44.63°N, 72.03°W
Report Text: KCDA 252155Z AUTO 00000KT 10SM SCT047 BKN055 12/03 A2955 RMK AO2 T01160034
Loading
Personal Weather Stations






























Interactive Weather Map
Tropical Storm Tracking
New forecast layout! Learn more

10-Day Weather Forecast

Advertisements
Track Severe Weather on mobile